Windsor Airport
CYQG : rendu visible

Aérodrome :











RETROUVEZ-NOUS SUR...

 
LOGIN :

S'inscrire | Disclaimer

   EN    FR    IT 

 









Légende :    VFR   VFR Marginal   IFR   IFR Intensif   IFR Très Intensif
Visi : 
Plafond : 
>= 8 km
>= 3000ft
5 à 8 km
1000 à 3000 ft
1500m à 5 km
500 à 1000 ft
800 à 1500m
200 à 500 ft
< 800m
< 200 ft
Symboles :   Orages  Brouillard  Fortes neiges  Fortes précipitations  Vent > 20 kt






- Altitude de l'aérodrome : 622 ft
- Code IATA : YQG


CYQG - Windsor

DERNIER METAR :
  • 191600Z AUTO 00000KT 3SM BR OVC036 02/01 A2982 RMK SLP106

METARs EXPIRÉS :
  • 191500Z AUTO 27003KT 3SM BR OVC036 02/00 A2981 RMK SLP102
  • 191400Z AUTO 26003KT 3SM BR OVC040 00/M00 A2980 RMK SLP100
  • 191340Z AUTO 25002KT 3SM BR OVC042 M00/M00 A2980 RMK SLP098
  • 191311Z AUTO 00000KT 2 1/2SM BR OVC040 M00/M00 A2978 RMK SLP094

TAF AMD TAF CYQG
Valide du 19 à 12h jusqu'au 20 à 12h UTC


191217Z 1912/2012 21005KT 6SM BR SCT005 OVC040
TEMPO 1912/1918 2SM BR BKN005 OVC040
FM191800 28005KT P6SM SCT006 BKN040
TEMPO 1918/1920 BKN006 OVC040
FM192000 22008KT P6SM SCT015 BKN030
TEMPO 1920/2002 BKN015 OVC030
FM200200 27008KT 6SM BR SCT004 BKN025
TEMPO 2002/2012 2SM BR BKN004 OVC020
PROB40 2003/2012 1/2SM FG VV002 RMK FCST BASED ON AUTO OBS. NXT FCST BY 191800Z



MET'MAP, la Météo Aéronautique d'un coup d'oeil ! - Copyright ORBIFLY Décembre 2007 - Disclaimer

ORBIFLY MET'MAP TEAM :

Programmation & Développement : Alexandra Zaïnal
Conception & Développement : Baudouin d'Aumeries
Co-Programmation & Développement : Marc-Olivier Méhu
Soutien technique & logistique : Manuel Goepfert

Contact : metmap@orbifly.com




SOURCES & CREDITS :

   NOAA       Earth
Advisory